Nearby METAR Reports

 

EFHK - Helsinki/Vantaa, Finland
Distance from station: IKO 45km
Päivitetty: 16/12/2017 23:50
Mist, Enimmäkseen pilvistä
Mist, Enimmäkseen pilvistä
 Tuulen suunta LU
Tuuli: LU 11 km/h
Lämpötila: 0°C
Wind Chill: -4°C
Kastepiste: 0°C
Kosteus: 100%
Ilmanpaine: 1002 hPa
Yhteenveto: Mist
Clouds: Enimmäkseen pilvistä
Visibility: 4 km
Cloud details: Puolipilvistä 30 m
Enimmäkseen pilvistä 1829 m
2017/12/16 21:50 EFHK 162150Z 32006KT 3500 BR SCT001 BKN060 00/00 Q1002 TEMPO BKN002
EFHF - Helsinki/Malmi, Finland
Distance from station: IKO 47km
Päivitetty: 06/03/2017 17:50
NOT Current
Selkeätä
Selkeätä
 Tuulen suunta KO
Tuuli: KO 11 km/h
Lämpötila: -2°C
Wind Chill: -6°C
Kastepiste: -11°C
Kosteus: 51%
Ilmanpaine: 1021 hPa
Yhteenveto: Selkeätä
Visibility: greater than 10 km
2017/03/06 15:50 EFHF 061550Z 04006KT 330V100 CAVOK M02/M11 Q1021
 
EETN - Tallinn, Estonia
Distance from station: EKA 89km
Päivitetty: 16/12/2017 23:50
Mist, Vaihetelvaa
Mist, Vaihetelvaa
 Tuulen suunta ELO
Tuuli: ELO 11 km/h
Lämpötila: 1°C
Wind Chill: -2°C
Kastepiste: 0°C
Kosteus: 93%
Ilmanpaine: 1003 hPa
Yhteenveto: Mist
Clouds: Vaihetelvaa
Visibility: 1 km
Cloud details: Vaihetelvaa 61 m
2017/12/16 21:50 EETN 162150Z 21006KT 1300 R26/P2000 BR OVC002 01/00 Q1003 R08/290195 TEMPO 1000
EFTU - Turku/Abo, Finland
Distance from station: LLU 115km
Päivitetty: 16/12/2017 23:50
Mist, Vaihetelvaa
Mist, Vaihetelvaa
 Tuulen suunta P
Tuuli: P 6 km/h
Lämpötila: 0°C
Kastepiste: 0°C
Kosteus: 100%
Ilmanpaine: 1003 hPa
Yhteenveto: Mist
Clouds: Vaihetelvaa
Visibility: 3 km
Cloud details: Enimmäkseen pilvistä 61 m
Vaihetelvaa 396 m
2017/12/16 21:50 EFTU 162150Z AUTO 35003KT 3000 BR BKN002/// OVC013/// 00/00 Q1003
 
EFTP - Tampere/Pirkkala, Finland
Distance from station: PLU 145km
Päivitetty: 16/12/2017 23:50
Vaihetelvaa
Vaihetelvaa
 Tuulen suunta varies
Tuuli: varies 0 km/h
Lämpötila: 0°C
Kastepiste: -1°C
Kosteus: 93%
Ilmanpaine: 1003 hPa
Clouds: Vaihetelvaa
Visibility: 10 km
Cloud details: Puolipilvistä 152 m
Vaihetelvaa 213 m
2017/12/16 21:50 EFTP 162150Z AUTO VRB00KT 9999 SCT005 OVC007 00/M01 Q1003
EEKA - Kardla, Estonia
Distance from station: ELO 151km
Päivitetty: 16/12/2017 10:50
NOT Current
Puolipilvistä
Puolipilvistä
 Tuulen suunta E
Tuuli: E 11 km/h
Lämpötila: 2°C
Wind Chill: -1°C
Kastepiste: 1°C
Kosteus: 93%
Ilmanpaine: 997 hPa
Clouds: Puolipilvistä
Visibility: 10 km
Cloud details: Few Clouds 457 m
Puolipilvistä 1067 m
2017/12/16 08:50 EEKA 160850Z 17006KT 9999 FEW015CB SCT035 02/01 Q0997
 
EFUT - Utti (fin-Afb), Finland
Distance from station: IKO 169km
Päivitetty: 16/12/2017 23:50
Freezing fog, Vaihetelvaa
Freezing fog, Vaihetelvaa
 Tuulen suunta IKA
Tuuli: IKA 9 km/h
Lämpötila: 0°C
Wind Chill: -3°C
Kastepiste: 0°C
Kosteus: 100%
Ilmanpaine: 1002 hPa
Yhteenveto: Freezing Fog
Clouds: Vaihetelvaa
Visibility: 0 km
Cloud details: Vaihetelvaa 61 m
2017/12/16 21:50 EFUT 162150Z AUTO 11005KT 0300 FZFG VV002 M00/M00 Q1002
EFHA - Halli (fin-Afb), Finland
Distance from station: P 192km
Päivitetty: 16/12/2017 23:50
Vaihetelvaa
Vaihetelvaa
 Tuulen suunta varies
Tuuli: varies 0 km/h
Lämpötila: 0°C
Kastepiste: 0°C
Kosteus: 100%
Ilmanpaine: 1002 hPa
Clouds: Vaihetelvaa
Visibility: 10 km
Cloud details: Vaihetelvaa 244 m
2017/12/16 21:50 EFHA 162150Z AUTO VRB00KT 9999 OVC008 00/00 Q1002
 
EEPU - Parnu, Estonia
Distance from station: E 193km
Päivitetty: 16/12/2017 15:50
NOT Current
Mist, Vaihetelvaa
Mist, Vaihetelvaa
 Tuulen suunta EKA
Tuuli: EKA 6 km/h
Lämpötila: 1°C
Kastepiste: 1°C
Kosteus: 100%
Ilmanpaine: 1000 hPa
Yhteenveto: Mist
Clouds: Vaihetelvaa
Visibility: 2 km
Cloud details: Vaihetelvaa 61 m
2017/12/16 13:50 EEPU 161350Z 15003KT 090V230 2400 BR OVC002 01/01 Q1000
EFPO - Pori (mil/Civ), Finland
Distance from station: LU 197km
Päivitetty: 16/12/2017 23:50
Enimmäkseen pilvistä
Enimmäkseen pilvistä
 Tuulen suunta PLU
Tuuli: PLU 7 km/h
Lämpötila: 0°C
Wind Chill: -3°C
Kastepiste: -1°C
Kosteus: 93%
Ilmanpaine: 1004 hPa
Clouds: Enimmäkseen pilvistä
Visibility: 10 km
Cloud details: Enimmäkseen pilvistä 152 m
Enimmäkseen pilvistä 427 m
Enimmäkseen pilvistä 1585 m
2017/12/16 21:50 EFPO 162150Z AUTO 33004KT 9999 BKN005/// BKN014/// BKN052/// M00/M01 Q1004